createdAt,value
2018-07-27T00:00:34.165Z,23.07
2018-07-27T00:01:34.273Z,23.05
2018-07-27T00:02:34.306Z,23.07
2018-07-27T00:03:34.327Z,23.05
2018-07-27T00:04:34.261Z,23.08
2018-07-27T00:05:34.074Z,23.08
2018-07-27T00:06:34.343Z,23.07
2018-07-27T00:07:34.292Z,23.06
2018-07-27T00:08:34.259Z,23.07
2018-07-27T00:09:34.314Z,23.06
2018-07-27T00:10:34.201Z,23.08
2018-07-27T00:11:34.211Z,23.05
2018-07-27T00:12:34.103Z,23.05
2018-07-27T00:13:34.340Z,23.07
2018-07-27T00:14:34.130Z,23.02
2018-07-27T00:15:34.226Z,23.07
2018-07-27T00:16:34.343Z,23.05
2018-07-27T00:17:34.308Z,23.05
2018-07-27T00:18:34.230Z,23.06
2018-07-27T00:19:34.090Z,23.05
2018-07-27T00:20:34.334Z,23.07
2018-07-27T00:21:34.396Z,23.05
2018-07-27T00:22:34.194Z,23.06
2018-07-27T00:23:34.132Z,23.05
2018-07-27T00:24:34.187Z,23.05
2018-07-27T00:25:34.258Z,23.07
2018-07-27T00:26:34.284Z,23.05
2018-07-27T00:27:34.133Z,23.05
2018-07-27T00:28:34.293Z,23.05
2018-07-27T00:29:34.202Z,23.05
2018-07-27T00:30:34.200Z,23.07
2018-07-27T00:31:34.359Z,23.05
2018-07-27T00:32:34.208Z,23.05
2018-07-27T00:33:34.338Z,23.05
2018-07-27T00:34:34.202Z,23.02
2018-07-27T00:35:34.347Z,23.06
2018-07-27T00:36:34.271Z,23.05
2018-07-27T00:37:34.224Z,23.03
2018-07-27T00:38:34.153Z,23.02
2018-07-27T00:39:34.440Z,23.02
2018-07-27T00:40:34.211Z,23.03
2018-07-27T00:41:34.112Z,23.05
2018-07-27T00:42:34.333Z,23.05
2018-07-27T00:43:34.352Z,23.02
2018-07-27T00:44:34.606Z,23.01
2018-07-27T00:45:34.032Z,23.03
2018-07-27T00:46:34.145Z,23.05
2018-07-27T00:47:34.074Z,23.05
2018-07-27T00:48:34.386Z,23.01
2018-07-27T00:49:34.267Z,23.03
2018-07-27T00:50:34.056Z,23.02
2018-07-27T00:51:34.183Z,23.03
2018-07-27T00:52:34.332Z,23.03
2018-07-27T00:53:34.235Z,23.02
2018-07-27T00:54:34.212Z,23.05
2018-07-27T00:55:34.113Z,23.02
2018-07-27T00:56:34.139Z,23.02
2018-07-27T00:57:34.219Z,23.02
2018-07-27T00:58:34.105Z,23.01
2018-07-27T00:59:34.075Z,23
2018-07-27T01:00:34.199Z,23.01
2018-07-27T01:01:34.331Z,23.02
2018-07-27T01:02:34.156Z,23.01
2018-07-27T01:03:34.096Z,23.03
2018-07-27T01:04:34.342Z,23.03
2018-07-27T01:05:34.208Z,23.01
2018-07-27T01:06:34.186Z,23.01
2018-07-27T01:07:34.273Z,23.01
2018-07-27T01:08:44.147Z,23.01
2018-07-27T01:09:34.888Z,23.05
2018-07-27T01:10:34.320Z,23.01
2018-07-27T01:11:34.404Z,23.01
2018-07-27T01:12:34.273Z,23.05
2018-07-27T01:13:34.327Z,23.01
2018-07-27T01:14:34.240Z,23
2018-07-27T01:15:34.072Z,23.03
2018-07-27T01:16:34.245Z,23.02
2018-07-27T01:17:34.225Z,23
2018-07-27T01:18:34.089Z,23
2018-07-27T01:19:34.574Z,23
2018-07-27T01:20:34.144Z,23.03
2018-07-27T01:21:34.311Z,23
2018-07-27T01:22:34.347Z,23
2018-07-27T01:23:34.308Z,23.02
2018-07-27T01:24:44.249Z,23
2018-07-27T01:25:34.327Z,23
2018-07-27T01:26:34.149Z,23.02
2018-07-27T01:27:34.291Z,23.02
2018-07-27T01:28:34.207Z,23.02
2018-07-27T01:29:34.400Z,23.01
2018-07-27T01:30:34.368Z,23
2018-07-27T01:31:34.271Z,23.01
2018-07-27T01:32:34.198Z,23.01
2018-07-27T01:33:34.241Z,23.01
2018-07-27T01:34:34.055Z,23
2018-07-27T01:35:34.286Z,22.99
2018-07-27T01:36:34.223Z,23.02
2018-07-27T01:37:34.307Z,23
2018-07-27T01:38:34.264Z,23.01
2018-07-27T01:39:34.316Z,23.02
2018-07-27T01:40:34.377Z,23
2018-07-27T01:41:34.284Z,23
2018-07-27T01:42:34.181Z,23
2018-07-27T01:43:34.169Z,23.01
2018-07-27T01:44:34.275Z,22.99
2018-07-27T01:45:34.217Z,23.01
2018-07-27T01:46:34.149Z,23
2018-07-27T01:47:34.263Z,23.01
2018-07-27T01:48:34.176Z,23
2018-07-27T01:49:34.172Z,22.98
2018-07-27T01:50:34.101Z,23
2018-07-27T01:51:34.222Z,23
2018-07-27T01:52:34.063Z,23.01
2018-07-27T01:53:34.128Z,22.98
2018-07-27T01:54:34.333Z,23
2018-07-27T01:55:34.144Z,22.98
2018-07-27T01:56:34.126Z,23
2018-07-27T01:57:34.295Z,23
2018-07-27T01:58:34.323Z,22.99
2018-07-27T01:59:34.171Z,23
2018-07-27T02:00:34.286Z,22.98
2018-07-27T02:01:34.132Z,23
2018-07-27T02:02:34.140Z,22.99
2018-07-27T02:03:34.374Z,23
2018-07-27T02:04:34.261Z,22.99
2018-07-27T02:05:34.207Z,23
2018-07-27T02:06:34.124Z,23.01
2018-07-27T02:07:34.218Z,22.98
2018-07-27T02:08:34.069Z,23
2018-07-27T02:09:34.212Z,22.99
2018-07-27T02:10:33.935Z,23
2018-07-27T02:11:34.169Z,23
2018-07-27T02:12:34.659Z,22.98
2018-07-27T02:13:34.239Z,23
2018-07-27T02:14:34.083Z,23
2018-07-27T02:15:34.184Z,23
2018-07-27T02:16:34.198Z,22.99
2018-07-27T02:17:34.100Z,22.99
2018-07-27T02:18:34.219Z,22.98
2018-07-27T02:19:34.043Z,22.98
2018-07-27T02:20:34.142Z,22.99
2018-07-27T02:21:34.167Z,23
2018-07-27T02:22:34.205Z,22.98
2018-07-27T02:23:34.570Z,23
2018-07-27T02:24:34.353Z,22.99
2018-07-27T02:25:34.116Z,22.98
2018-07-27T02:26:34.063Z,22.98
2018-07-27T02:27:34.333Z,23
2018-07-27T02:28:34.073Z,22.99
2018-07-27T02:29:34.089Z,22.98
2018-07-27T02:30:34.176Z,22.98
2018-07-27T02:31:34.444Z,22.96
2018-07-27T02:32:34.290Z,22.99
2018-07-27T02:33:34.355Z,22.96
2018-07-27T02:34:34.120Z,22.98
2018-07-27T02:35:34.259Z,22.97
2018-07-27T02:36:34.516Z,22.98
2018-07-27T02:37:34.058Z,22.98
2018-07-27T02:38:34.253Z,22.98
2018-07-27T02:39:34.112Z,22.99
2018-07-27T02:40:34.125Z,22.98
2018-07-27T02:41:34.662Z,22.99
2018-07-27T02:42:34.231Z,22.98
2018-07-27T02:43:34.143Z,22.98
2018-07-27T02:44:34.501Z,22.98
2018-07-27T02:45:34.296Z,22.98
2018-07-27T02:46:34.198Z,22.98
2018-07-27T02:47:34.465Z,22.97
2018-07-27T02:48:34.513Z,22.99
2018-07-27T02:49:34.153Z,22.98
2018-07-27T02:50:34.248Z,22.98
2018-07-27T02:51:34.078Z,22.97
2018-07-27T02:52:34.409Z,22.96
2018-07-27T02:53:34.126Z,22.98
2018-07-27T02:54:34.313Z,22.96
2018-07-27T02:55:34.018Z,22.97
2018-07-27T02:56:34.224Z,22.96
2018-07-27T02:57:34.235Z,22.96
2018-07-27T02:58:34.378Z,22.97
2018-07-27T02:59:34.244Z,22.97
2018-07-27T03:00:34.089Z,22.96
2018-07-27T03:01:34.090Z,22.98
2018-07-27T03:02:34.193Z,22.96
2018-07-27T03:03:34.360Z,22.98
2018-07-27T03:04:34.121Z,22.96
2018-07-27T03:05:34.190Z,22.97
2018-07-27T03:06:34.313Z,22.97
2018-07-27T03:07:34.240Z,22.98
2018-07-27T03:08:34.077Z,22.97
2018-07-27T03:09:34.837Z,22.96
2018-07-27T03:10:34.198Z,22.97
2018-07-27T03:11:34.170Z,22.97
2018-07-27T03:12:34.164Z,23
2018-07-27T03:13:34.213Z,22.98
2018-07-27T03:14:34.255Z,22.96
2018-07-27T03:15:34.256Z,22.97
2018-07-27T03:16:34.340Z,22.96
2018-07-27T03:17:34.506Z,22.96
2018-07-27T03:18:34.177Z,22.97
2018-07-27T03:19:34.606Z,22.96
2018-07-27T03:20:34.089Z,22.97
2018-07-27T03:21:34.093Z,22.96
2018-07-27T03:22:34.035Z,22.96
2018-07-27T03:23:34.127Z,22.95
2018-07-27T03:24:34.221Z,22.97
2018-07-27T03:25:34.276Z,22.95
2018-07-27T03:26:34.024Z,22.97
2018-07-27T03:27:34.243Z,22.97
2018-07-27T03:28:34.170Z,22.95
2018-07-27T03:29:34.062Z,22.95
2018-07-27T03:30:34.130Z,22.96
2018-07-27T03:31:34.120Z,22.96
2018-07-27T03:32:34.189Z,22.95
2018-07-27T03:33:34.235Z,22.97
2018-07-27T03:34:34.044Z,22.95
2018-07-27T03:35:34.352Z,22.95
2018-07-27T03:36:34.178Z,22.96
2018-07-27T03:37:34.168Z,22.94
2018-07-27T03:38:34.257Z,22.96
2018-07-27T03:39:34.133Z,22.96
2018-07-27T03:40:34.112Z,22.96
2018-07-27T03:41:34.168Z,22.95
2018-07-27T03:42:34.177Z,22.95
2018-07-27T03:43:34.279Z,22.95
2018-07-27T03:44:34.431Z,22.95
2018-07-27T03:45:34.155Z,22.95
2018-07-27T03:46:34.293Z,22.97
2018-07-27T03:47:34.165Z,22.93
2018-07-27T03:48:34.391Z,22.95
2018-07-27T03:49:33.997Z,22.95
2018-07-27T03:50:34.356Z,22.96
2018-07-27T03:51:34.112Z,22.93
2018-07-27T03:52:34.191Z,22.97
2018-07-27T03:53:34.089Z,22.96
2018-07-27T03:54:34.246Z,22.95
2018-07-27T03:55:34.524Z,22.96
2018-07-27T03:56:34.244Z,22.95
2018-07-27T03:57:34.359Z,22.95
2018-07-27T03:58:34.007Z,22.98
2018-07-27T03:59:34.222Z,22.94
2018-07-27T04:00:34.131Z,22.93
2018-07-27T04:01:34.213Z,22.95
2018-07-27T04:02:34.073Z,22.97
2018-07-27T04:03:34.293Z,22.96
2018-07-27T04:04:34.140Z,22.96
2018-07-27T04:05:34.290Z,22.95
2018-07-27T04:06:34.048Z,22.97
2018-07-27T04:07:34.008Z,22.96
2018-07-27T04:08:34.264Z,22.97
2018-07-27T04:09:34.158Z,22.95
2018-07-27T04:10:34.334Z,22.95
2018-07-27T04:11:34.237Z,22.95
2018-07-27T04:12:34.382Z,22.96
2018-07-27T04:13:34.182Z,22.95
2018-07-27T04:14:34.199Z,22.93
2018-07-27T04:15:34.363Z,22.93
2018-07-27T04:16:33.994Z,22.95
2018-07-27T04:17:34.494Z,22.96
2018-07-27T04:18:34.158Z,22.95
2018-07-27T04:19:34.447Z,22.95
2018-07-27T04:20:34.287Z,22.95
2018-07-27T04:21:34.088Z,22.95
2018-07-27T04:22:34.689Z,22.95
2018-07-27T04:23:34.066Z,22.93
2018-07-27T04:24:34.144Z,22.96
2018-07-27T04:25:34.052Z,22.95
2018-07-27T04:26:34.054Z,22.95
2018-07-27T04:27:34.143Z,22.95
2018-07-27T04:28:34.249Z,22.94
2018-07-27T04:29:34.291Z,22.96
2018-07-27T04:30:34.209Z,22.95
2018-07-27T04:31:34.218Z,22.94
2018-07-27T04:32:34.223Z,22.93
2018-07-27T04:33:34.112Z,22.95
2018-07-27T04:34:34.141Z,22.94
2018-07-27T04:35:34.327Z,22.94
2018-07-27T04:36:34.150Z,22.94
2018-07-27T04:37:34.267Z,22.93
2018-07-27T04:38:34.137Z,22.93
2018-07-27T04:39:34.091Z,22.95
2018-07-27T04:40:34.122Z,22.95
2018-07-27T04:41:34.087Z,22.95
2018-07-27T04:42:34.052Z,22.95
2018-07-27T04:43:33.958Z,22.94
2018-07-27T04:44:34.037Z,22.95
2018-07-27T04:45:34.189Z,22.93
2018-07-27T04:46:34.296Z,22.93
2018-07-27T04:47:34.221Z,22.92
2018-07-27T04:48:34.134Z,22.93
2018-07-27T04:49:34.063Z,22.96
2018-07-27T04:50:34.224Z,22.94
2018-07-27T04:51:34.039Z,22.94
2018-07-27T04:52:34.037Z,22.93
2018-07-27T04:53:34.184Z,22.93
2018-07-27T04:54:34.129Z,22.92
2018-07-27T04:55:34.049Z,22.95
2018-07-27T04:56:34.904Z,22.93
2018-07-27T04:57:34.094Z,22.95
2018-07-27T04:58:33.994Z,22.94
2018-07-27T04:59:34.238Z,22.95
2018-07-27T05:00:34.040Z,22.84
2018-07-27T05:01:34.024Z,22.75
2018-07-27T05:02:34.178Z,22.61
2018-07-27T05:03:34.136Z,22.58
2018-07-27T05:04:34.386Z,22.57
2018-07-27T05:05:34.042Z,22.57
2018-07-27T05:06:34.162Z,22.62
2018-07-27T05:07:34.302Z,22.54
2018-07-27T05:08:34.523Z,22.58
2018-07-27T05:09:34.080Z,22.53
2018-07-27T05:10:34.043Z,22.49
2018-07-27T05:11:34.219Z,22.46
2018-07-27T05:12:34.122Z,22.43
2018-07-27T05:13:34.540Z,22.47
2018-07-27T05:14:34.241Z,22.44
2018-07-27T05:15:34.170Z,22.38
2018-07-27T05:16:34.046Z,22.39
2018-07-27T05:17:34.397Z,22.38
2018-07-27T05:18:34.143Z,22.37
2018-07-27T05:19:34.021Z,22.39
2018-07-27T05:20:34.259Z,22.42
2018-07-27T05:21:34.144Z,22.42
2018-07-27T05:22:34.172Z,22.41
2018-07-27T05:23:34.013Z,22.4
2018-07-27T05:24:34.520Z,22.4
2018-07-27T05:25:34.191Z,22.43
2018-07-27T05:26:34.397Z,22.44
2018-07-27T05:27:34.158Z,22.43
2018-07-27T05:28:33.959Z,22.42
2018-07-27T05:29:34.108Z,22.43
2018-07-27T05:30:34.137Z,22.47
2018-07-27T05:31:34.477Z,22.48
2018-07-27T05:32:34.016Z,22.48
2018-07-27T05:33:34.252Z,22.46
2018-07-27T05:34:34.043Z,22.48
2018-07-27T05:35:34.060Z,22.48
2018-07-27T05:36:34.568Z,22.5
2018-07-27T05:37:34.154Z,22.52
2018-07-27T05:38:34.136Z,22.52
2018-07-27T05:39:34.056Z,22.54
2018-07-27T05:40:34.215Z,22.57
2018-07-27T05:41:34.158Z,22.54
2018-07-27T05:42:34.137Z,22.52
2018-07-27T05:43:34.101Z,22.56
2018-07-27T05:44:34.093Z,22.57
2018-07-27T05:45:34.254Z,22.6
2018-07-27T05:46:33.988Z,22.56
2018-07-27T05:47:34.162Z,22.58
2018-07-27T05:48:34.441Z,22.61
2018-07-27T05:49:34.155Z,22.62
2018-07-27T05:50:34.276Z,22.61
2018-07-27T05:51:34.170Z,22.6
2018-07-27T05:52:34.204Z,22.61
2018-07-27T05:53:34.236Z,22.62
2018-07-27T05:54:34.048Z,22.63
2018-07-27T05:55:57.483Z,22.58
2018-07-27T05:56:33.990Z,22.62
2018-07-27T05:57:34.055Z,22.6
2018-07-27T05:58:33.956Z,22.58
2018-07-27T05:59:34.094Z,22.61
2018-07-27T06:00:34.151Z,22.61
2018-07-27T06:01:33.965Z,22.63
2018-07-27T06:02:34.465Z,22.64
2018-07-27T06:03:34.003Z,22.61
2018-07-27T06:04:34.073Z,22.64
2018-07-27T06:05:34.092Z,22.63
2018-07-27T06:06:34.100Z,22.63
2018-07-27T06:07:34.008Z,22.63
2018-07-27T06:08:34.089Z,22.64
2018-07-27T06:09:33.979Z,22.66
2018-07-27T06:10:34.200Z,22.66
2018-07-27T06:11:34.178Z,22.66
2018-07-27T06:12:34.326Z,22.68
2018-07-27T06:13:34.141Z,22.69
2018-07-27T06:14:34.767Z,22.69
2018-07-27T06:15:34.109Z,22.68
2018-07-27T06:16:33.980Z,22.66
2018-07-27T06:17:34.031Z,22.66
2018-07-27T06:18:34.226Z,22.67
2018-07-27T06:19:34.121Z,22.67
2018-07-27T06:20:34.036Z,22.67
2018-07-27T06:21:34.058Z,22.69
2018-07-27T06:22:34.154Z,22.69
2018-07-27T06:23:34.303Z,22.69
2018-07-27T06:24:34.014Z,22.69
2018-07-27T06:25:34.414Z,22.73
2018-07-27T06:26:34.436Z,22.76
2018-07-27T06:27:34.261Z,22.77
2018-07-27T06:28:33.976Z,22.76
2018-07-27T06:29:34.099Z,22.76
2018-07-27T06:30:34.150Z,22.78
2018-07-27T06:31:34.093Z,22.79
2018-07-27T06:32:35.062Z,22.79
2018-07-27T06:33:34.203Z,22.78
2018-07-27T06:34:34.018Z,22.78
2018-07-27T06:35:34.094Z,22.8
2018-07-27T06:36:34.339Z,22.78
2018-07-27T06:37:34.038Z,22.76
2018-07-27T06:38:34.019Z,22.78
2018-07-27T06:39:34.210Z,22.79
2018-07-27T06:40:34.108Z,22.75
2018-07-27T06:41:34.152Z,22.77
2018-07-27T06:42:34.099Z,22.77
2018-07-27T06:43:33.929Z,22.76
2018-07-27T06:44:34.213Z,22.78
2018-07-27T06:45:34.110Z,22.76
2018-07-27T06:46:34.083Z,22.78
2018-07-27T06:47:34.131Z,22.75
2018-07-27T06:48:34.134Z,22.79
2018-07-27T06:49:34.071Z,22.77
2018-07-27T06:50:34.210Z,22.78
2018-07-27T06:51:34.161Z,22.78
2018-07-27T06:52:34.718Z,22.79
2018-07-27T06:53:34.344Z,22.82
2018-07-27T06:54:33.978Z,22.85
2018-07-27T06:55:34.254Z,22.84
2018-07-27T06:56:35.389Z,22.84
2018-07-27T06:57:34.208Z,22.86
2018-07-27T06:58:34.169Z,22.86
2018-07-27T06:59:34.043Z,22.86
2018-07-27T07:00:34.078Z,22.87
2018-07-27T07:01:33.946Z,22.87
2018-07-27T07:02:34.665Z,22.87
2018-07-27T07:03:34.423Z,22.92
2018-07-27T07:04:34.067Z,22.92
2018-07-27T07:05:34.405Z,22.93
2018-07-27T07:06:34.071Z,22.92
2018-07-27T07:07:34.020Z,22.92
2018-07-27T07:08:34.164Z,22.91
2018-07-27T07:09:34.412Z,22.93
2018-07-27T07:10:33.940Z,22.92
2018-07-27T07:11:34.021Z,22.9
2018-07-27T07:12:34.187Z,22.92
2018-07-27T07:13:34.054Z,22.92
2018-07-27T07:14:35.118Z,22.94
2018-07-27T07:15:34.125Z,22.95
2018-07-27T07:16:33.990Z,22.96
2018-07-27T07:17:34.023Z,23
2018-07-27T07:18:34.173Z,23.01
2018-07-27T07:19:33.976Z,22.98
2018-07-27T07:20:34.103Z,23.02
2018-07-27T07:21:34.135Z,23.01
2018-07-27T07:22:33.951Z,23.01
2018-07-27T07:23:34.141Z,23.02
2018-07-27T07:24:34.110Z,23.05
2018-07-27T07:25:35.165Z,23.05
2018-07-27T07:26:34.144Z,23.06
2018-07-27T07:27:34.029Z,23.06
2018-07-27T07:28:33.922Z,23.07
2018-07-27T07:29:34.220Z,23.1
2018-07-27T07:30:34.165Z,23.12
2018-07-27T07:31:34.248Z,23.11
2018-07-27T07:32:34.126Z,23.1
2018-07-27T07:33:34.086Z,23.12
2018-07-27T07:34:33.954Z,23.1
2018-07-27T07:35:34.095Z,23.1
2018-07-27T07:36:34.326Z,23.13
2018-07-27T07:37:33.947Z,23.07
2018-07-27T07:38:34.025Z,23.11
2018-07-27T07:39:34.084Z,23.13
2018-07-27T07:40:34.093Z,23.11
2018-07-27T07:41:34.003Z,23.09
2018-07-27T07:42:34.310Z,23.1
2018-07-27T07:43:33.988Z,23.07
2018-07-27T07:44:34.151Z,23.07
2018-07-27T07:45:33.929Z,23.06
2018-07-27T07:46:34.243Z,23.06
2018-07-27T07:47:34.120Z,23.08
2018-07-27T07:48:34.070Z,23.09
2018-07-27T07:49:34.095Z,23.08
2018-07-27T07:50:34.108Z,23.08
2018-07-27T07:51:34.403Z,23.09
2018-07-27T07:52:33.982Z,23.09
2018-07-27T07:53:34.091Z,23.09
2018-07-27T07:54:34.049Z,23.09
2018-07-27T07:55:33.952Z,23.1
2018-07-27T07:56:34.059Z,23.08
2018-07-27T07:57:34.177Z,23.1
2018-07-27T07:58:34.548Z,23.1
2018-07-27T07:59:34.174Z,23.09
2018-07-27T08:00:34.078Z,23.14
2018-07-27T08:01:34.091Z,23.16
2018-07-27T08:02:34.059Z,23.18
2018-07-27T08:03:34.191Z,23.16
2018-07-27T08:04:33.927Z,23.16
2018-07-27T08:05:34.585Z,23.14
2018-07-27T08:06:34.315Z,23.15
2018-07-27T08:07:34.328Z,23.13
2018-07-27T08:08:34.251Z,23.13
2018-07-27T08:09:33.983Z,23.17
2018-07-27T08:10:34.182Z,23.21
2018-07-27T08:11:34.323Z,23.2
2018-07-27T08:12:34.172Z,23.21
2018-07-27T08:13:34.101Z,23.2
2018-07-27T08:14:34.183Z,23.21
2018-07-27T08:15:34.024Z,23.23
2018-07-27T08:16:34.123Z,23.23
2018-07-27T08:17:34.142Z,23.24
2018-07-27T08:18:34.186Z,23.23
2018-07-27T08:19:33.911Z,23.26
2018-07-27T08:20:34.046Z,23.23
2018-07-27T08:21:34.065Z,23.27
2018-07-27T08:22:33.895Z,23.28
2018-07-27T08:23:34.052Z,23.27
2018-07-27T08:24:34.215Z,23.27
2018-07-27T08:25:33.915Z,23.3
2018-07-27T08:26:34.188Z,23.29
2018-07-27T08:27:34.199Z,23.3
2018-07-27T08:28:33.977Z,23.31
2018-07-27T08:29:33.937Z,23.31
2018-07-27T08:30:34.153Z,23.34
2018-07-27T08:31:33.932Z,23.32
2018-07-27T08:32:33.953Z,23.34
2018-07-27T08:33:34.021Z,23.32
2018-07-27T08:34:33.970Z,23.32
2018-07-27T08:35:34.035Z,23.36
2018-07-27T08:36:33.981Z,23.34
2018-07-27T08:37:34.008Z,23.38
2018-07-27T08:38:33.946Z,23.37
2018-07-27T08:39:34.318Z,23.37
2018-07-27T08:40:33.938Z,23.36
2018-07-27T08:41:34.165Z,23.37
2018-07-27T08:42:34.066Z,23.36
2018-07-27T08:43:34.002Z,23.34
2018-07-27T08:44:34.195Z,23.3
2018-07-27T08:45:33.984Z,23.28
2018-07-27T08:46:34.181Z,23.24
2018-07-27T08:47:34.049Z,23.26
2018-07-27T08:48:34.020Z,23.24
2018-07-27T08:49:33.857Z,23.21
2018-07-27T08:50:33.958Z,23.23
2018-07-27T08:51:34.421Z,23.22
2018-07-27T08:52:34.079Z,23.21
2018-07-27T08:53:33.951Z,23.2
2018-07-27T08:54:34.043Z,23.2
2018-07-27T08:55:34.114Z,23.18
2018-07-27T08:56:34.073Z,23.15
2018-07-27T08:57:34.091Z,23.17
2018-07-27T08:58:33.910Z,23.16
2018-07-27T08:59:33.996Z,23.16
2018-07-27T09:00:33.963Z,23.14
2018-07-27T09:01:34.105Z,23.15
2018-07-27T09:02:33.926Z,23.14
2018-07-27T09:03:34.081Z,23.13
2018-07-27T09:04:34.007Z,23.11
2018-07-27T09:05:34.051Z,23.13
2018-07-27T09:06:33.965Z,23.13
2018-07-27T09:07:34.018Z,23.12
2018-07-27T09:08:34.087Z,23.12
2018-07-27T09:09:34.007Z,23.13
2018-07-27T09:10:09.362Z,23.18
2018-07-27T09:11:09.293Z,23.16
2018-07-27T09:12:19.114Z,23.14
2018-07-27T09:13:09.261Z,23.11
2018-07-27T09:14:09.189Z,23.08
2018-07-27T09:15:09.268Z,23.08
2018-07-27T09:16:09.355Z,23.09
2018-07-27T09:17:09.056Z,23.1
2018-07-27T09:18:09.368Z,23.1
2018-07-27T09:19:09.210Z,23.11
2018-07-27T09:20:09.307Z,23.12
2018-07-27T09:21:09.332Z,23.14
2018-07-27T09:22:09.156Z,23.14
2018-07-27T09:23:09.495Z,23.14
2018-07-27T09:24:09.482Z,23.14
2018-07-27T09:25:12.363Z,23.12
2018-07-27T09:26:09.307Z,23.14
2018-07-27T09:27:09.391Z,23.15
2018-07-27T09:28:09.364Z,23.15
2018-07-27T09:29:09.205Z,23.14
2018-07-27T09:30:08.998Z,23.14
2018-07-27T09:31:09.205Z,23.16
2018-07-27T09:32:09.338Z,23.16
2018-07-27T09:33:22.311Z,23.17
2018-07-27T09:34:22.648Z,23.18
2018-07-27T09:35:22.375Z,23.17
2018-07-27T09:36:18.607Z,23.17
2018-07-27T09:37:18.833Z,23.21
2018-07-27T09:38:18.642Z,23.2
2018-07-27T09:39:18.618Z,23.21
2018-07-27T09:40:18.702Z,23.23
2018-07-27T09:41:18.742Z,23.22
2018-07-27T09:42:18.787Z,23.21
2018-07-27T09:43:18.814Z,23.22
2018-07-27T09:44:18.628Z,23.22
2018-07-27T09:45:18.591Z,23.2
2018-07-27T09:46:18.613Z,23.2
2018-07-27T09:47:18.595Z,23.22
2018-07-27T09:48:18.712Z,23.23
2018-07-27T09:49:18.612Z,23.23
2018-07-27T09:50:18.731Z,23.25
2018-07-27T09:51:18.636Z,23.23
2018-07-27T09:52:18.716Z,23.26
2018-07-27T09:53:18.714Z,23.25
2018-07-27T09:54:18.647Z,23.27
2018-07-27T09:55:18.781Z,23.23
2018-07-27T09:56:18.546Z,23.25
2018-07-27T09:57:18.732Z,23.29
2018-07-27T09:58:18.705Z,23.28
2018-07-27T09:59:18.889Z,23.29
2018-07-27T10:00:18.667Z,23.3
2018-07-27T10:01:18.713Z,23.28
2018-07-27T10:02:18.642Z,23.29
2018-07-27T10:03:18.758Z,23.29
2018-07-27T10:04:18.764Z,23.3
2018-07-27T10:05:18.702Z,23.31
2018-07-27T10:06:02.675Z,23.38
2018-07-27T10:07:02.849Z,23.4
2018-07-27T10:08:02.534Z,23.45
2018-07-27T10:09:02.494Z,23.47
2018-07-27T10:10:02.652Z,23.51
2018-07-27T10:11:03.320Z,23.51
2018-07-27T10:12:02.734Z,23.53
2018-07-27T10:13:02.767Z,23.53
2018-07-27T10:14:02.760Z,23.53
2018-07-27T10:15:02.574Z,23.53
2018-07-27T10:16:02.700Z,23.52
2018-07-27T10:17:02.480Z,23.53
2018-07-27T10:18:02.665Z,23.54
2018-07-27T10:19:02.830Z,23.53
2018-07-27T10:20:02.664Z,23.53
2018-07-27T10:21:02.940Z,23.53
2018-07-27T10:22:02.671Z,23.5
2018-07-27T10:23:02.701Z,23.52
2018-07-27T10:24:03.230Z,23.5
2018-07-27T10:25:02.578Z,23.46
2018-07-27T10:26:12.566Z,23.43
2018-07-27T10:27:02.691Z,23.41
2018-07-27T10:28:02.932Z,23.41
2018-07-27T10:29:02.871Z,23.4
2018-07-27T10:30:02.635Z,23.37
2018-07-27T10:31:02.856Z,23.37
2018-07-27T10:32:02.588Z,23.35
2018-07-27T10:33:02.892Z,23.36
2018-07-27T10:34:02.791Z,23.3
2018-07-27T10:35:02.656Z,23.34
2018-07-27T10:36:02.758Z,23.32
2018-07-27T10:37:03.149Z,23.27
2018-07-27T10:38:02.980Z,23.28
2018-07-27T10:39:02.677Z,23.29
2018-07-27T10:40:02.861Z,23.28
2018-07-27T10:41:02.597Z,23.29
2018-07-27T10:42:02.714Z,23.28
2018-07-27T10:43:02.637Z,23.26
2018-07-27T10:44:02.652Z,23.25
2018-07-27T10:45:02.819Z,23.25
2018-07-27T10:46:02.605Z,23.23
2018-07-27T10:47:02.824Z,23.24
2018-07-27T10:48:02.996Z,23.24
2018-07-27T10:49:02.784Z,23.21
2018-07-27T10:50:02.486Z,23.21
2018-07-27T10:51:02.678Z,23.22
2018-07-27T10:52:02.684Z,23.21
2018-07-27T10:53:02.469Z,23.21
2018-07-27T10:54:02.868Z,23.21
2018-07-27T10:55:03.114Z,23.18
2018-07-27T10:56:02.697Z,23.21
2018-07-27T10:57:02.723Z,23.18
2018-07-27T10:58:02.529Z,23.18
2018-07-27T10:59:02.799Z,23.2
2018-07-27T11:00:02.731Z,23.17
2018-07-27T11:01:02.585Z,23.2
2018-07-27T11:02:02.480Z,23.2
2018-07-27T11:03:02.702Z,23.18
2018-07-27T11:04:02.620Z,23.17
2018-07-27T11:05:02.577Z,23.2
2018-07-27T11:06:02.397Z,23.2
2018-07-27T11:07:02.723Z,23.15
2018-07-27T11:08:02.697Z,23.17
2018-07-27T11:09:02.521Z,23.17
2018-07-27T11:10:02.684Z,23.16
2018-07-27T11:11:02.602Z,23.16
2018-07-27T11:12:02.644Z,23.14
2018-07-27T11:13:02.640Z,23.17
2018-07-27T11:14:02.623Z,23.17
2018-07-27T11:15:02.514Z,23.14
2018-07-27T11:16:02.755Z,23.16
2018-07-27T11:17:02.631Z,23.16
2018-07-27T11:18:02.613Z,23.15
2018-07-27T11:19:02.647Z,23.21
2018-07-27T11:20:02.967Z,23.18
2018-07-27T11:21:02.624Z,23.23
2018-07-27T11:22:02.661Z,23.25
2018-07-27T11:23:03.008Z,23.23
2018-07-27T11:24:02.613Z,23.25
2018-07-27T11:25:02.776Z,23.26
2018-07-27T11:26:02.631Z,23.27
2018-07-27T11:27:02.679Z,23.28
2018-07-27T11:28:02.663Z,23.28
2018-07-27T11:29:02.879Z,23.31
2018-07-27T11:30:02.720Z,23.29
2018-07-27T11:31:03.120Z,23.32
2018-07-27T11:32:02.605Z,23.34
2018-07-27T11:33:02.635Z,23.34
2018-07-27T11:34:02.992Z,23.36
2018-07-27T11:35:02.894Z,23.37
2018-07-27T11:36:02.671Z,23.38
2018-07-27T11:37:03.427Z,23.35
2018-07-27T11:38:02.578Z,23.32
2018-07-27T11:39:02.732Z,23.32
2018-07-27T11:40:02.632Z,23.27
2018-07-27T11:41:02.684Z,23.28
2018-07-27T11:42:02.760Z,23.28
2018-07-27T11:43:02.599Z,23.28
2018-07-27T11:44:02.830Z,23.28
2018-07-27T11:45:02.752Z,23.25
2018-07-27T11:46:02.481Z,23.26
2018-07-27T11:47:02.502Z,23.23
2018-07-27T11:48:02.556Z,23.23
2018-07-27T11:49:02.935Z,23.23
2018-07-27T11:50:02.633Z,23.21
2018-07-27T11:51:02.714Z,23.23
2018-07-27T11:52:02.757Z,23.21
2018-07-27T11:53:02.784Z,23.23
2018-07-27T11:54:02.715Z,23.21
2018-07-27T11:55:02.929Z,23.18
2018-07-27T11:56:02.571Z,23.21
2018-07-27T11:57:03.140Z,23.2
2018-07-27T11:58:02.611Z,23.21
2018-07-27T11:59:02.695Z,23.17
2018-07-27T12:00:02.722Z,23.2
2018-07-27T12:01:02.632Z,23.2
2018-07-27T12:02:02.723Z,23.23
2018-07-27T12:03:02.552Z,23.24
2018-07-27T12:04:02.729Z,23.25
2018-07-27T12:05:02.675Z,23.28
2018-07-27T12:06:02.869Z,23.27
2018-07-27T12:07:03.863Z,23.28
2018-07-27T12:08:02.967Z,23.3
2018-07-27T12:09:03.298Z,23.28
2018-07-27T12:10:02.773Z,23.32
2018-07-27T12:11:02.795Z,23.3
2018-07-27T12:12:02.706Z,23.31
2018-07-27T12:13:02.672Z,23.31
2018-07-27T12:14:14.395Z,23.34
2018-07-27T12:15:04.891Z,23.32
2018-07-27T12:16:02.778Z,23.28
2018-07-27T12:17:02.603Z,23.27
2018-07-27T12:18:02.684Z,23.26
2018-07-27T12:19:02.647Z,23.25
2018-07-27T12:20:02.622Z,23.27
2018-07-27T12:21:04.173Z,23.24
2018-07-27T12:22:02.652Z,23.25
2018-07-27T12:23:02.699Z,23.24
2018-07-27T12:24:02.653Z,23.23
2018-07-27T12:25:02.707Z,23.22
2018-07-27T12:26:02.730Z,23.23
2018-07-27T12:27:03.224Z,23.22
2018-07-27T12:28:03.005Z,23.23
2018-07-27T12:29:02.774Z,23.2
2018-07-27T12:30:02.618Z,23.22
2018-07-27T12:31:02.838Z,23.21
2018-07-27T12:32:02.732Z,23.2
2018-07-27T12:33:02.768Z,23.18
2018-07-27T12:34:02.674Z,23.21
2018-07-27T12:35:02.598Z,23.24
2018-07-27T12:36:02.765Z,23.27
2018-07-27T12:37:02.840Z,23.25
2018-07-27T12:38:03.011Z,23.3
2018-07-27T12:39:03.409Z,23.31
2018-07-27T12:40:02.770Z,23.28
2018-07-27T12:41:03.627Z,23.28
2018-07-27T12:42:02.701Z,23.26
2018-07-27T12:43:02.532Z,23.24
2018-07-27T12:44:02.555Z,23.28
2018-07-27T12:45:03.435Z,23.3
2018-07-27T12:46:02.738Z,23.3
2018-07-27T12:47:02.719Z,23.3
2018-07-27T12:48:02.522Z,23.29
2018-07-27T12:49:02.875Z,23.28
2018-07-27T12:50:02.646Z,23.31
2018-07-27T12:51:03.023Z,23.3
2018-07-27T12:52:03.144Z,23.32
2018-07-27T12:53:02.821Z,23.35
2018-07-27T12:54:02.793Z,23.35
2018-07-27T12:55:02.656Z,23.38
2018-07-27T12:56:02.548Z,23.38
2018-07-27T12:57:02.981Z,23.37